Time;durP1;ratioP1;P1;durP2;ratioP2;P2;SDS_P1;SDS_P2;PMS_P1;PMS_P2;Temp;Humidity;BMP_temperature;BMP_pressure;BME280_temperature;BME280_humidity;BME280_pressure;Samples;Min_cycle;Max_cycle;Signal;HPM_P1;HPM_P2
2023/10/16 00:01:29;;;;;;;;;3.00;3.00;;;;;7.21;93.25;99802.34;6285272;20;2751370;-44
2023/10/16 00:03:57;;;;;;;;;5.00;5.00;;;;;6.59;93.91;99804.22;6284206;20;2748223;-44
2023/10/16 00:06:25;;;;;;;;;4.50;3.00;;;;;6.97;94.36;99809.66;6283740;20;2750270;-43
2023/10/16 00:08:59;;;;;;;;;6.00;4.00;;;;;6.59;93.90;99804.22;6302012;20;1812888;-43
2023/10/16 00:11:28;;;;;;;;;4.00;4.00;;;;;6.68;95.30;99805.63;6316651;20;2750373;-44
2023/10/16 00:13:57;;;;;;;;;4.00;4.00;;;;;6.51;96.13;99803.69;6301972;20;1812984;-45
2023/10/16 00:16:28;;;;;;;;;3.00;3.00;;;;;6.20;95.65;99799.66;6332493;20;1812855;-43
2023/10/16 00:18:59;;;;;;;;;3.00;3.00;;;;;6.50;95.81;99788.59;6328709;20;1805537;-43
2023/10/16 00:21:30;;;;;;;;;7.00;5.00;;;;;6.51;96.60;99790.38;6314543;20;2747265;-43
2023/10/16 00:23:57;;;;;;;;;6.50;5.00;;;;;6.77;96.04;99792.75;6282854;20;2748198;-43
2023/10/16 00:26:25;;;;;;;;;15.50;9.00;;;;;6.87;94.70;99793.19;6280898;20;2775295;-44
2023/10/16 00:31:52;;;;;;;;;3.50;3.50;;;;;7.28;92.49;99798.47;6313428;20;2753419;-44
2023/10/16 00:34:21;;;;;;;;;3.00;3.00;;;;;7.26;91.89;99811.00;6283286;20;2735732;-46
2023/10/16 00:36:51;;;;;;;;;5.00;3.50;;;;;7.23;91.46;99805.81;6281193;20;2756503;-43
2023/10/16 00:39:22;;;;;;;;;4.25;3.25;;;;;6.81;92.50;99805.00;6301194;20;1820158;-44
2023/10/16 00:41:50;;;;;;;;;5.50;5.00;;;;;7.02;92.67;99808.53;6317234;20;2739807;-44
2023/10/16 00:44:21;;;;;;;;;4.00;4.00;;;;;7.03;92.72;99812.09;6331481;20;1820175;-45
2023/10/16 00:46:53;;;;;;;;;3.00;3.00;;;;;7.20;91.52;99804.16;6329521;20;1814954;-43
2023/10/16 00:49:23;;;;;;;;;4.50;4.25;;;;;7.27;91.04;99807.44;6331640;20;1812401;-45
2023/10/16 00:51:51;;;;;;;;;6.00;4.50;;;;;7.12;91.43;99813.47;6317001;20;2754538;-43
2023/10/16 00:54:28;;;;;;;;;6.00;4.00;;;;;7.13;91.74;99815.19;6277586;20;2755543;-44
2023/10/16 00:56:59;;;;;;;;;4.00;4.00;;;;;7.33;90.29;99807.13;6278551;20;2746126;-45
2023/10/16 00:59:29;;;;;;;;;5.00;3.25;;;;;7.22;90.49;99820.97;6296392;20;1803483;-44
2023/10/16 01:02:15;;;;;;;;;5.00;5.00;;;;;7.43;89.87;99818.25;6316278;20;2748315;-45
2023/10/16 01:04:46;;;;;;;;;6.00;5.00;;;;;7.31;89.70;99810.81;6285307;20;2728520;-47
2023/10/16 01:07:14;;;;;;;;;7.00;7.00;;;;;7.33;89.43;99811.63;6313054;20;2748469;-45
2023/10/16 01:09:46;;;;;;;;;5.00;4.00;;;;;7.37;89.31;99808.72;6317092;20;2749439;-44
2023/10/16 01:12:20;;;;;;;;;5.75;5.75;;;;;7.30;88.64;99801.06;6300386;20;1808384;-45
2023/10/16 01:14:48;;;;;;;;;7.50;5.00;;;;;7.45;88.38;99808.34;6316507;20;2748288;-51
2023/10/16 01:17:29;;;;;;;;;5.00;4.00;;;;;7.34;88.32;99805.31;6328641;20;1810836;-44
2023/10/16 01:19:59;;;;;;;;;4.00;4.00;;;;;7.28;88.63;99808.28;6312818;20;2742993;-44
2023/10/16 01:22:29;;;;;;;;;5.00;5.00;;;;;7.17;89.16;99803.44;6332253;20;1813918;-44
2023/10/16 01:25:01;;;;;;;;;5.00;5.00;;;;;7.19;88.65;99817.59;6311761;20;2746227;-45
2023/10/16 01:27:31;;;;;;;;;10.00;5.50;;;;;7.30;88.46;99822.44;6277922;20;2766147;-44
2023/10/16 01:30:02;;;;;;;;;6.00;6.00;;;;;7.20;88.27;99812.16;6285380;20;2729441;-44
2023/10/16 01:32:31;;;;;;;;;8.33;5.00;;;;;7.19;88.28;99842.50;6329695;20;1819170;-44
2023/10/16 01:35:00;;;;;;;;;5.00;4.00;;;;;7.28;88.03;99830.50;6312207;20;2756667;-45
2023/10/16 01:37:29;;;;;;;;;6.00;3.50;;;;;7.20;87.75;99827.31;6277523;20;2749321;-44
2023/10/16 01:40:15;;;;;;;;;5.50;5.00;;;;;7.27;87.81;99828.78;6298740;20;1816151;-46
2023/10/16 01:42:43;;;;;;;;;3.50;3.50;;;;;7.21;87.53;99829.94;6308189;20;2753472;-44
2023/10/16 01:45:14;;;;;;;;;10.00;4.50;;;;;7.16;87.20;99829.28;6279349;20;2771129;-46
2023/10/16 01:47:42;;;;;;;;;4.50;4.00;;;;;6.96;88.09;99835.50;6274834;20;2754639;-45
2023/10/16 01:50:17;;;;;;;;;4.00;4.00;;;;;7.00;87.80;99830.88;6293103;20;1818115;-44
2023/10/16 01:52:45;;;;;;;;;6.00;6.00;;;;;7.11;88.41;99833.97;6310637;20;2733628;-44
2023/10/16 01:55:19;;;;;;;;;4.75;4.00;;;;;7.15;87.76;99835.53;6327927;20;1816211;-44
2023/10/16 01:57:47;;;;;;;;;6.00;6.00;;;;;6.88;87.78;99848.31;6315148;20;2729271;-45
2023/10/16 02:00:17;;;;;;;;;5.00;5.00;;;;;7.16;87.04;99842.63;6310861;20;2748406;-46
2023/10/16 02:02:45;;;;;;;;;8.00;4.50;;;;;6.93;87.73;99848.13;6280865;20;2745131;-44
2023/10/16 02:05:15;;;;;;;;;4.75;4.75;;;;;7.18;86.93;99851.41;6297331;20;1818241;-43
2023/10/16 02:07:43;;;;;;;;;9.00;4.00;;;;;7.03;87.73;99854.78;6314203;20;2749265;-44
2023/10/16 02:10:12;;;;;;;;;4.50;3.00;;;;;6.99;87.35;99858.53;6298330;20;1819231;-44
2023/10/16 02:12:41;;;;;;;;;4.00;4.00;;;;;7.09;87.01;99862.53;6330605;20;1816047;-45
2023/10/16 02:15:09;;;;;;;;;5.50;4.50;;;;;7.09;87.12;99870.53;6313926;20;2748372;-45
2023/10/16 02:17:39;;;;;;;;;3.00;3.00;;;;;7.05;86.87;99866.25;6281852;20;2750384;-50
2023/10/16 02:20:11;;;;;;;;;4.00;4.00;;;;;6.98;87.46;99876.34;6298786;20;1811865;-46
2023/10/16 02:22:41;;;;;;;;;5.25;4.00;;;;;6.98;87.86;99881.69;6328382;20;1819127;-45
2023/10/16 02:25:12;;;;;;;;;6.00;4.50;;;;;7.01;87.40;99880.69;6327245;20;1816482;-45
2023/10/16 02:27:41;;;;;;;;;3.50;2.50;;;;;6.95;87.26;99880.94;6312206;20;2756537;-46
2023/10/16 02:32:53;;;;;;;;;4.00;4.00;;;;;6.78;88.67;99879.88;6278995;20;2748282;-43
2023/10/16 02:35:23;;;;;;;;;8.50;5.00;;;;;6.88;87.92;99885.69;6297057;20;1807735;-44
2023/10/16 02:37:53;;;;;;;;;4.50;4.00;;;;;6.82;88.06;99877.94;6313161;20;2745113;-45
2023/10/16 02:40:25;;;;;;;;;6.50;6.00;;;;;6.73;88.39;99886.34;6280949;20;2745062;-45
2023/10/16 02:43:00;;;;;;;;;8.25;4.75;;;;;6.77;88.56;99880.81;6325139;20;1819141;-45
2023/10/16 02:45:33;;;;;;;;;4.00;4.00;;;;;6.73;88.20;99881.84;6312335;20;2748308;-45
2023/10/16 02:48:02;;;;;;;;;4.00;4.00;;;;;6.70;88.56;99890.00;6312216;20;2756598;-45
2023/10/16 02:50:30;;;;;;;;;5.50;4.00;;;;;6.76;88.34;99895.06;6287263;20;2742998;-44
2023/10/16 02:52:58;;;;;;;;;7.00;5.00;;;;;6.74;88.42;99893.41;6319022;20;2744111;-44
2023/10/16 02:55:26;;;;;;;;;6.75;6.75;;;;;6.87;87.71;99907.09;6333586;20;1821337;-44
2023/10/16 02:57:55;;;;;;;;;4.75;4.75;;;;;6.92;87.47;99897.09;6332628;20;1814946;-44
2023/10/16 03:00:34;;;;;;;;;5.00;3.50;;;;;7.18;86.38;99898.63;6314627;20;2752387;-44
2023/10/16 03:03:06;;;;;;;;;6.00;6.00;;;;;7.20;86.15;99886.94;6287173;20;2738851;-44
2023/10/16 03:05:34;;;;;;;;;4.00;4.00;;;;;7.19;85.96;99890.56;6317031;20;2756585;-46
2023/10/16 03:08:02;;;;;;;;;4.00;4.00;;;;;7.40;85.36;99888.72;6282213;20;2749399;-46
2023/10/16 03:10:31;;;;;;;;;5.00;5.00;;;;;7.38;85.32;99889.72;6301797;20;1818114;-44
2023/10/16 03:13:05;;;;;;;;;8.00;6.00;;;;;6.81;86.93;99884.19;6317904;20;2739880;-44
2023/10/16 03:18:29;;;;;;;;;15.00;12.00;;;;;6.53;88.05;99890.72;6310359;20;2788827;-46
2023/10/16 03:23:44;;;;;;;;;7.25;5.00;;;;;6.65;88.08;99893.81;6303153;20;1813963;-44
2023/10/16 03:26:25;;;;;;;;;4.50;4.50;;;;;6.60;88.03;99891.31;6316844;20;2747288;-45
2023/10/16 03:28:58;;;;;;;;;6.00;4.50;;;;;6.67;87.73;99892.81;6284636;20;2749334;-44
2023/10/16 03:31:28;;;;;;;;;5.50;5.50;;;;;6.53;87.71;99889.81;6282368;20;2735697;-45
2023/10/16 03:33:56;;;;;;;;;5.00;5.00;;;;;6.77;87.04;99894.16;6333349;20;1818613;-44
2023/10/16 03:36:24;;;;;;;;;7.00;5.50;;;;;6.68;86.85;99894.53;6315990;20;2748172;-44
2023/10/16 03:38:52;;;;;;;;;7.50;6.00;;;;;6.69;87.37;99890.94;6285003;20;2746211;-44
2023/10/16 03:43:57;;;;;;;;;5.00;5.00;;;;;6.60;87.21;99885.97;6337473;20;1813888;-44
2023/10/16 03:46:29;;;;;;;;;7.00;4.75;;;;;6.52;88.34;99883.63;6332970;20;1815572;-44
2023/10/16 03:48:58;;;;;;;;;9.75;6.25;;;;;6.64;88.32;99889.41;6331805;20;1814968;-45
2023/10/16 03:51:26;;;;;;;;;8.50;7.50;;;;;6.89;87.06;99889.22;6333088;20;1804956;-43
2023/10/16 03:53:56;;;;;;;;;9.00;7.50;;;;;6.47;87.90;99890.09;6332395;20;1814997;-45
2023/10/16 03:56:24;;;;;;;;;6.00;6.00;;;;;6.32;88.41;99887.16;6311608;20;2726529;-44
2023/10/16 03:58:53;;;;;;;;;5.00;5.00;;;;;6.23;88.82;99898.16;6329308;20;1815017;-44
2023/10/16 04:01:27;;;;;;;;;4.25;4.25;;;;;6.46;88.47;99901.72;6330750;20;1819175;-47
2023/10/16 04:03:56;;;;;;;;;5.00;5.00;;;;;6.42;88.46;99908.09;6329914;20;1804587;-46
2023/10/16 04:06:30;;;;;;;;;9.60;5.20;;;;;6.42;88.21;99906.28;6337535;20;2734704;-44
2023/10/16 04:08:59;;;;;;;;;4.00;4.00;;;;;6.28;89.01;99906.84;6333899;20;1814961;-44
2023/10/16 04:11:32;;;;;;;;;6.00;5.00;;;;;6.57;89.02;99913.66;6314511;20;2748236;-44
2023/10/16 04:13:59;;;;;;;;;8.00;7.00;;;;;5.81;90.74;99906.03;6283868;20;2738832;-45
2023/10/16 04:16:36;;;;;;;;;8.00;8.00;;;;;6.05;91.30;99909.56;6321099;20;1816059;-45
2023/10/16 04:21:50;;;;;;;;;7.75;5.75;;;;;5.84;92.95;99920.09;6329849;20;1807963;-45
2023/10/16 04:32:56;;;;;;;;;6.00;6.00;;;;;6.08;91.87;99930.75;6287433;20;1812909;-44
2023/10/16 04:46:54;;;;;;;;;9.75;5.00;;;;;5.99;90.49;99944.47;6327516;20;1811988;-44
2023/10/16 04:49:16;;;;;;;;;6.00;4.00;;;;;6.12;90.28;99948.38;6313957;20;2750273;-44
2023/10/16 04:52:01;;;;;;;;;6.50;6.50;;;;;6.17;89.57;99946.41;6297999;20;1814075;-44
2023/10/16 04:54:58;;;;;;;;;8.00;6.33;;;;;6.61;87.89;99951.75;6335783;20;1807638;-44
2023/10/16 05:00:54;;;;;;;;;6.00;4.00;;;;;6.43;88.94;99960.50;6314702;20;2747195;-44
2023/10/16 05:03:25;;;;;;;;;4.00;3.00;;;;;6.38;89.31;99966.03;6314460;20;2734684;-44
2023/10/16 05:05:57;;;;;;;;;5.00;5.00;;;;;6.54;88.11;99967.13;6312229;20;2747166;-44
2023/10/16 05:08:31;;;;;;;;;5.00;5.00;;;;;6.34;88.33;99965.25;6315357;20;2748358;-44
2023/10/16 05:11:33;;;;;;;;;2.00;2.00;;;;;6.46;88.42;99968.38;6283094;20;3456648;-44
2023/10/16 05:16:53;;;;;;;;;5.00;4.75;;;;;6.28;88.40;99968.19;6292676;20;1819108;-43
2023/10/16 06:14:37;;;;;;;;;4.00;4.00;;;;;17.52;43.21;100017.88;6281395;20;2754469;-43
2023/10/16 06:17:15;;;;;;;;;5.50;4.00;;;;;18.13;41.77;100036.19;6283524;20;2742969;-43
2023/10/16 06:19:44;;;;;;;;;3.00;3.00;;;;;19.45;39.52;100047.94;6282633;20;2748221;-43
2023/10/16 06:22:12;;;;;;;;;4.00;4.00;;;;;19.39;38.63;100043.94;6286150;20;2737792;-43
2023/10/16 06:24:47;;;;;;;;;2.00;2.00;;;;;17.43;41.87;100042.22;6283989;20;2724413;-44
2023/10/16 06:27:22;;;;;;;;;5.00;5.00;;;;;19.54;38.20;100049.81;6284316;20;2746177;-44
2023/10/16 06:29:51;;;;;;;;;12.80;9.00;;;;;19.24;38.47;100042.63;6305773;20;2770068;-43
2023/10/16 06:32:25;;;;;;;;;23.00;17.33;;;;;19.23;39.52;100052.66;6275710;20;2844139;-45
2023/10/16 06:34:57;;;;;;;;;12.33;12.33;;;;;19.14;38.98;100055.34;6307794;20;3517953;-46
2023/10/16 06:37:31;;;;;;;;;17.00;15.33;;;;;19.33;38.58;100060.84;6307847;20;3545473;-43
2023/10/16 06:40:01;;;;;;;;;15.67;13.00;;;;;18.64;40.11;100057.06;6278933;20;3532786;-44
2023/10/16 06:42:31;;;;;;;;;12.67;10.00;;;;;17.76;41.54;100052.09;6278368;20;3507554;-42
2023/10/16 06:45:07;;;;;;;;;6.80;6.80;;;;;18.07;41.07;100057.63;6337186;20;2743024;-42
2023/10/16 06:47:36;;;;;;;;;8.67;8.67;;;;;18.04;41.84;100047.88;6310900;20;2756585;-42
2023/10/16 06:53:00;;;;;;;;;7.00;5.50;;;;;11.10;59.84;100046.53;6314078;20;2741972;-42
2023/10/16 06:55:30;;;;;;;;;9.60;7.00;;;;;10.28;66.48;100049.38;6304525;20;2763817;-42
2023/10/16 06:58:01;;;;;;;;;6.71;6.00;;;;;10.40;66.70;100050.50;6324695;20;3457686;-43
2023/10/16 07:00:32;;;;;;;;;6.00;6.00;;;;;10.25;66.01;100049.50;6311528;20;2740131;-43
2023/10/16 07:03:09;;;;;;;;;6.00;6.00;;;;;10.63;67.19;100063.53;6284908;20;2736737;-43
2023/10/16 07:05:43;;;;;;;;;6.20;5.60;;;;;10.60;66.46;100049.41;6305411;20;2742999;-42
2023/10/16 07:08:18;;;;;;;;;5.00;4.00;;;;;10.13;67.02;100061.75;6304881;20;2744136;-43
2023/10/16 07:10:55;;;;;;;;;5.00;5.00;;;;;10.09;68.88;100063.75;6281313;20;2752397;-43
2023/10/16 07:13:28;;;;;;;;;7.00;5.00;;;;;10.24;68.23;100054.03;6285718;20;2742991;-42
2023/10/16 07:16:03;;;;;;;;;5.50;5.50;;;;;10.68;65.85;100060.59;6280939;20;2740936;-43
2023/10/16 07:18:33;;;;;;;;;5.00;5.00;;;;;10.45;65.82;100070.81;6284326;20;2744097;-42
2023/10/16 07:23:34;;;;;;;;;7.00;5.50;;;;;10.94;63.28;100086.84;6278996;20;2739906;-43
2023/10/16 07:26:16;;;;;;;;;5.00;5.00;;;;;11.34;63.67;100091.75;6281876;20;2731568;-45
2023/10/16 07:28:50;;;;;;;;;13.00;7.50;;;;;10.61;64.70;100089.63;6281073;20;2764914;-43
2023/10/16 07:31:19;;;;;;;;;7.00;6.00;;;;;11.03;64.04;100095.34;6279590;20;2744017;-42
2023/10/16 07:33:50;;;;;;;;;7.00;7.00;;;;;11.06;63.45;100095.16;6283589;20;2741030;-43
2023/10/16 07:36:18;;;;;;;;;8.00;8.00;;;;;11.20;63.35;100093.41;6285141;20;2743102;-42
2023/10/16 07:38:48;;;;;;;;;6.00;6.00;;;;;11.24;63.04;100098.59;6290876;20;2746120;-43
2023/10/16 07:41:23;;;;;;;;;3.00;3.00;;;;;11.07;63.20;100096.91;6288551;20;2744031;-43
2023/10/16 07:43:59;;;;;;;;;10.71;10.00;;;;;10.90;65.24;100100.53;6333177;20;1801408;-45
2023/10/16 07:46:29;;;;;;;;;12.67;12.67;;;;;11.44;62.81;100101.00;6312061;20;3521222;-45
2023/10/16 07:49:09;;;;;;;;;14.00;11.00;;;;;11.62;61.76;100093.69;6320067;20;2797146;-47
2023/10/16 07:51:45;;;;;;;;;7.00;6.00;;;;;11.74;61.17;100108.22;6288291;20;2742995;-43
2023/10/16 07:54:14;;;;;;;;;7.50;7.50;;;;;12.01;60.73;100114.69;6289893;20;2739857;-44
2023/10/16 07:56:42;;;;;;;;;4.00;4.00;;;;;11.41;61.52;100112.81;6288284;20;2747174;-44
2023/10/16 07:59:10;;;;;;;;;5.00;5.00;;;;;11.90;60.55;100109.09;6289813;20;2734705;-43
2023/10/16 08:01:54;;;;;;;;;4.00;4.00;;;;;12.04;59.59;100111.78;6288797;20;2732660;-43
2023/10/16 08:06:55;;;;;;;;;2.00;2.00;;;;;11.48;58.41;100123.19;6286239;20;2738871;-43
2023/10/16 08:11:58;;;;;;;;;5.00;5.00;;;;;12.18;57.62;100118.16;6288479;20;2739869;-43
2023/10/16 08:14:32;;;;;;;;;6.00;6.00;;;;;11.82;58.18;100114.91;6289753;20;2747164;-43
2023/10/16 08:17:13;;;;;;;;;4.00;4.00;;;;;11.80;58.46;100113.25;6286067;20;2730482;-45
2023/10/16 08:19:46;;;;;;;;;5.00;3.25;;;;;11.78;57.78;100117.84;6305820;20;1810847;-43
2023/10/16 08:22:14;;;;;;;;;6.00;4.00;;;;;11.89;57.73;100123.47;6319519;20;2736113;-43
2023/10/16 08:25:00;;;;;;;;;4.00;3.50;;;;;12.48;56.63;100121.66;6289264;20;2752415;-47
2023/10/16 08:30:32;;;;;;;;;11.00;10.00;;;;;12.33;56.30;100127.13;6289685;20;2789026;-46
2023/10/16 08:33:06;;;;;;;;;7.00;4.50;;;;;11.92;56.71;100128.69;6288706;20;2748222;-45
2023/10/16 08:35:38;;;;;;;;;7.00;6.00;;;;;12.28;55.59;100124.72;6288256;20;2743096;-44
2023/10/16 08:38:26;;;;;;;;;8.00;8.00;;;;;12.73;55.23;100125.50;6291072;20;2733609;-45
2023/10/16 08:41:05;;;;;;;;;4.80;3.60;;;;;12.35;55.73;100128.78;6311074;20;2752364;-45
2023/10/16 08:43:48;;;;;;;;;7.50;5.00;;;;;12.68;55.05;100124.91;6320340;20;2748211;-45
2023/10/16 08:46:18;;;;;;;;;5.50;4.00;;;;;12.10;57.28;100126.69;6282925;20;2745727;-45
2023/10/16 08:48:52;;;;;;;;;6.50;6.50;;;;;12.54;55.66;100133.00;6287124;20;2744023;-45
2023/10/16 08:51:20;;;;;;;;;7.00;5.50;;;;;12.34;56.58;100127.03;6288674;20;2743124;-47
2023/10/16 08:53:48;;;;;;;;;5.00;5.00;;;;;12.51;55.30;100137.63;6284135;20;2750299;-44
2023/10/16 08:56:18;;;;;;;;;4.00;4.00;;;;;12.47;55.83;100129.81;6290085;20;2732597;-45
2023/10/16 08:58:46;;;;;;;;;4.00;4.00;;;;;12.63;54.26;100135.97;6282959;20;2756594;-45
2023/10/16 09:01:19;;;;;;;;;5.00;3.00;;;;;13.13;53.93;100122.91;6288161;20;2756558;-45
2023/10/16 09:04:06;;;;;;;;;4.00;2.50;;;;;12.67;53.34;100126.75;6288246;20;2755509;-44
2023/10/16 09:06:37;;;;;;;;;3.00;3.00;;;;;12.65;52.88;100127.81;6286136;20;2738912;-45
2023/10/16 09:09:12;;;;;;;;;5.00;5.00;;;;;13.06;52.70;100129.66;6289729;20;2747158;-45
2023/10/16 09:11:44;;;;;;;;;2.50;2.50;;;;;12.54;53.30;100133.00;6288919;20;2748312;-45
2023/10/16 09:14:17;;;;;;;;;5.00;4.00;;;;;12.89;53.60;100133.47;6283890;20;2754525;-44
2023/10/16 09:16:48;;;;;;;;;5.00;5.00;;;;;13.21;53.00;100135.91;6296757;20;2748184;-46
2023/10/16 09:19:18;;;;;;;;;6.00;5.00;;;;;12.93;52.87;100143.97;6289305;20;2750689;-45
2023/10/16 09:21:52;;;;;;;;;4.00;4.00;;;;;12.57;51.73;100130.97;6285015;20;2754441;-45
2023/10/16 09:24:22;;;;;;;;;3.00;3.00;;;;;13.13;51.78;100128.31;6287059;20;2753469;-45
2023/10/16 09:26:54;;;;;;;;;3.00;3.00;;;;;12.76;51.97;100119.91;6285360;20;2742112;-47
2023/10/16 09:29:27;;;;;;;;;5.00;5.00;;;;;12.77;52.08;100121.66;6287910;20;2743118;-46
2023/10/16 09:32:02;;;;;;;;;4.00;3.00;;;;;12.77;51.95;100131.53;6304395;20;1809824;-45
2023/10/16 09:34:33;;;;;;;;;10.00;9.00;;;;;12.79;51.84;100133.16;6316928;20;2770245;-44
2023/10/16 09:37:35;;;;;;;;;4.00;4.00;;;;;12.60;51.62;100135.31;6286123;20;2751453;-45
2023/10/16 09:40:00;;;;;;;;;17.00;15.67;;;;;13.11;50.96;100130.22;6285685;20;3548180;-45
2023/10/16 09:42:34;;;;;;;;;21.67;20.67;;;;;13.09;50.93;100121.41;6283779;20;2838126;-47
2023/10/16 09:45:18;;;;;;;;;8.00;8.00;;;;;13.09;52.52;100126.81;6313367;20;2731672;-47
2023/10/16 09:47:51;;;;;;;;;5.00;3.00;;;;;13.26;50.73;100121.19;6285223;20;2744043;-45
2023/10/16 09:50:20;;;;;;;;;3.00;3.00;;;;;13.14;50.43;100119.28;6284512;20;2731655;-45
2023/10/16 09:52:48;;;;;;;;;5.00;4.00;;;;;12.83;50.19;100115.88;6283873;20;2747182;-45
2023/10/16 09:55:21;;;;;;;;;3.00;3.00;;;;;12.77;50.83;100120.75;6286223;20;2750490;-47
2023/10/16 09:57:54;;;;;;;;;3.00;3.00;;;;;13.03;50.29;100116.41;6300756;20;1801420;-45
2023/10/16 10:00:32;;;;;;;;;3.00;1.00;;;;;13.21;50.21;100104.41;6317330;20;2737822;-45
2023/10/16 10:03:06;;;;;;;;;4.00;3.00;;;;;13.44;49.80;100115.56;6286866;20;2739952;-49
2023/10/16 10:08:52;;;;;;;;;3.00;3.00;;;;;13.43;49.91;100109.31;6283983;20;2739914;-44
2023/10/16 10:11:44;;;;;;;;;3.00;3.00;;;;;13.20;50.39;100102.69;6284612;20;2748321;-57
2023/10/16 10:14:39;;;;;;;;;0.00;0.00;;;;;13.01;50.33;100112.97;6301590;20;1804525;-45
2023/10/16 10:17:10;;;;;;;;;5.00;3.50;;;;;13.28;49.51;100108.47;6311125;20;2751371;-45
2023/10/16 10:19:40;;;;;;;;;8.80;8.80;;;;;13.30;49.98;100103.00;6309577;20;2739873;-44
2023/10/16 10:22:35;;;;;;;;;4.00;4.00;;;;;13.66;49.04;100115.81;6316804;20;2751315;-44
2023/10/16 10:25:16;;;;;;;;;7.00;4.50;;;;;13.04;48.80;100115.44;6287485;20;2740922;-45
2023/10/16 10:27:47;;;;;;;;;5.50;3.00;;;;;13.25;49.55;100094.31;6284633;20;2750283;-44
2023/10/16 10:30:25;;;;;;;;;4.50;4.00;;;;;13.53;49.06;100102.31;6285709;20;2745083;-45
2023/10/16 10:33:00;;;;;;;;;8.00;8.00;;;;;13.78;48.89;100098.81;6285774;20;2748333;-45
2023/10/16 10:35:30;;;;;;;;;4.00;4.00;;;;;13.69;49.03;100096.75;6284485;20;2733610;-45
2023/10/16 10:38:21;;;;;;;;;5.00;5.00;;;;;13.54;50.33;100100.47;6286321;20;2729439;-47
2023/10/16 10:41:04;;;;;;;;;4.00;4.00;;;;;13.40;51.08;100087.91;6285811;20;2735753;-45
2023/10/16 10:44:03;;;;;;;;;5.50;5.50;;;;;13.53;50.76;100077.16;6284714;20;2735728;-45
2023/10/16 10:46:36;;;;;;;;;5.00;5.00;;;;;13.63;51.27;100078.25;6284637;20;2747233;-48
2023/10/16 10:49:07;;;;;;;;;3.50;3.50;;;;;13.44;50.03;100080.47;6282546;20;2741958;-44
2023/10/16 10:51:44;;;;;;;;;2.00;2.00;;;;;13.61;49.74;100077.50;6286930;20;2733628;-45
2023/10/16 10:54:14;;;;;;;;;3.50;3.50;;;;;14.07;48.71;100078.88;6284172;20;2737923;-45
2023/10/16 10:56:48;;;;;;;;;5.50;3.00;;;;;13.73;48.64;100078.50;6285663;20;2744075;-46
2023/10/16 10:59:41;;;;;;;;;4.00;4.00;;;;;13.36;49.36;100071.06;6283715;20;2749248;-48
2023/10/16 11:04:54;;;;;;;;;8.00;8.00;;;;;13.73;48.65;100057.78;6286547;20;2748236;-44
2023/10/16 11:07:45;;;;;;;;;8.00;7.00;;;;;13.91;48.76;100060.19;6285147;20;2748235;-44
2023/10/16 11:10:16;;;;;;;;;4.00;4.00;;;;;14.00;47.68;100064.94;6312115;20;2752362;-46
2023/10/16 11:12:44;;;;;;;;;2.50;2.50;;;;;13.38;48.26;100068.28;6291030;20;2740979;-44
2023/10/16 11:15:16;;;;;;;;;5.00;5.00;;;;;13.81;47.94;100058.09;6291754;20;2746202;-44
2023/10/16 11:17:46;;;;;;;;;4.00;4.00;;;;;14.08;47.86;100073.34;6292746;20;2750351;-47
2023/10/16 11:22:47;;;;;;;;;5.00;5.00;;;;;13.48;50.22;100053.22;6321024;20;2744050;-47
2023/10/16 11:25:15;;;;;;;;;6.50;4.00;;;;;14.00;50.05;100052.28;6290672;20;2754414;-44
2023/10/16 11:27:44;;;;;;;;;5.00;2.00;;;;;13.88;49.04;100046.91;6288130;20;2749270;-44
2023/10/16 11:30:18;;;;;;;;;5.00;5.00;;;;;13.89;48.44;100045.94;6314482;20;2738880;-44
2023/10/16 11:32:49;;;;;;;;;6.00;3.00;;;;;14.08;48.68;100046.34;6319199;20;2735725;-45
2023/10/16 11:35:18;;;;;;;;;3.00;3.00;;;;;14.15;48.60;100031.47;6287778;20;2755467;-44
2023/10/16 11:37:52;;;;;;;;;57.67;47.67;;;;;14.35;46.72;100032.75;6287875;20;3614855;-44
2023/10/16 11:40:39;;;;;;;;;4.50;2.00;;;;;14.48;47.07;100027.28;6290116;20;2755454;-45
2023/10/16 11:43:12;;;;;;;;;20.67;18.67;;;;;13.82;47.33;100032.88;6284192;20;2836764;-44
2023/10/16 11:45:56;;;;;;;;;62.50;50.75;;;;;13.81;47.20;100023.03;6314607;20;3611792;-45
2023/10/16 11:51:17;;;;;;;;;43.67;33.67;;;;;13.95;46.61;100024.75;6288104;20;3613855;-46
2023/10/16 11:53:44;;;;;;;;;3.00;3.00;;;;;14.24;45.99;100030.81;6290591;20;2727387;-45
2023/10/16 11:56:18;;;;;;;;;4.00;3.00;;;;;13.89;44.98;100022.50;6284996;20;2752416;-46
2023/10/16 11:58:47;;;;;;;;;3.00;3.00;;;;;14.45;45.47;100024.81;6289468;20;2739862;-44
2023/10/16 12:01:16;;;;;;;;;8.00;8.00;;;;;14.34;45.93;100025.59;6287784;20;2748190;-44
2023/10/16 12:04:04;;;;;;;;;3.00;3.00;;;;;14.24;45.00;100022.72;6292684;20;2734684;-44
2023/10/16 12:06:33;;;;;;;;;2.00;2.00;;;;;14.18;44.57;100022.28;6287615;20;2750431;-45
2023/10/16 12:09:01;;;;;;;;;6.50;6.00;;;;;14.11;45.18;100020.97;6289351;20;2740912;-44
2023/10/16 12:11:28;;;;;;;;;2.00;2.00;;;;;14.38;44.14;100027.13;6287901;20;2746059;-44
2023/10/16 12:13:56;;;;;;;;;2.00;2.00;;;;;14.43;43.63;100019.56;6289401;20;2744020;-44
2023/10/16 12:16:27;;;;;;;;;2.00;2.00;;;;;14.42;43.89;100011.53;6286385;20;2752500;-44
2023/10/16 12:19:05;;;;;;;;;2.00;2.00;;;;;14.55;44.12;100007.00;6291415;20;2744086;-44
2023/10/16 12:21:33;;;;;;;;;3.00;2.00;;;;;14.17;43.72;100007.91;6287675;20;2748296;-48
2023/10/16 12:24:01;;;;;;;;;4.50;2.00;;;;;14.39;44.05;100007.22;6285968;20;2746108;-44
2023/10/16 12:26:29;;;;;;;;;3.00;2.00;;;;;14.42;43.84;100006.13;6286248;20;2736208;-44
2023/10/16 12:28:59;;;;;;;;;3.00;3.00;;;;;14.69;43.43;100009.56;6286438;20;2747149;-44
2023/10/16 12:31:27;;;;;;;;;1.00;1.00;;;;;14.56;43.79;100014.16;6292601;20;2733734;-46
2023/10/16 12:33:56;;;;;;;;;6.67;6.67;;;;;14.77;43.90;100009.03;6280891;20;2739986;-44
2023/10/16 12:36:25;;;;;;;;;2.00;2.00;;;;;14.88;43.32;100013.63;6318389;20;2737852;-46
2023/10/16 12:38:53;;;;;;;;;5.50;4.00;;;;;14.49;43.72;100000.19;6290857;20;2743027;-44
2023/10/16 12:41:24;;;;;;;;;2.00;2.00;;;;;14.47;43.77;99998.56;6286211;20;2746129;-44
2023/10/16 12:43:52;;;;;;;;;1.00;1.00;;;;;14.55;43.86;100004.31;6293182;20;2722248;-48
2023/10/16 12:46:20;;;;;;;;;2.00;2.00;;;;;14.37;43.53;100008.31;6286940;20;2751445;-47
2023/10/16 12:48:48;;;;;;;;;2.00;2.00;;;;;14.15;44.42;100000.91;6288048;20;2756611;-47
2023/10/16 12:51:17;;;;;;;;;2.00;2.00;;;;;14.65;43.72;100005.38;6290591;20;2744557;-43
2023/10/16 12:53:45;;;;;;;;;3.00;3.00;;;;;14.60;44.32;99998.56;6286657;20;2752361;-45
2023/10/16 12:56:16;;;;;;;;;6.00;5.00;;;;;14.84;43.73;100001.28;6286373;20;2748287;-43
2023/10/16 12:58:44;;;;;;;;;3.00;3.00;;;;;14.73;43.50;99998.53;6285708;20;2756971;-43
2023/10/16 13:01:12;;;;;;;;;2.00;2.00;;;;;14.49;43.86;99985.81;6286855;20;2746138;-44
2023/10/16 13:03:41;;;;;;;;;2.00;2.00;;;;;14.21;43.69;99993.19;6288208;20;2744016;-43
2023/10/16 13:06:09;;;;;;;;;3.50;3.00;;;;;14.37;43.85;99994.81;6285604;20;2753361;-43
2023/10/16 13:08:36;;;;;;;;;3.00;2.00;;;;;14.47;43.45;99987.75;6290558;20;2752375;-46
2023/10/16 13:11:07;;;;;;;;;3.00;2.00;;;;;14.03;43.23;99997.22;6288243;20;2737775;-43
2023/10/16 13:13:35;;;;;;;;;1.00;1.00;;;;;14.14;43.41;99991.94;6289656;20;2721125;-46
2023/10/16 13:16:04;;;;;;;;;1.00;1.00;;;;;14.67;42.98;99997.16;6287094;20;2731583;-43
2023/10/16 13:18:33;;;;;;;;;4.00;3.00;;;;;14.33;43.23;99996.00;6287922;20;2742998;-44
2023/10/16 13:21:07;;;;;;;;;37.67;32.00;;;;;14.46;43.21;99996.84;6282404;20;3612865;-43
2023/10/16 13:23:37;;;;;;;;;47.00;37.67;;;;;14.33;45.34;99996.88;6316513;20;3610749;-44
2023/10/16 13:26:15;;;;;;;;;2.00;2.00;;;;;14.01;44.49;99996.47;6302441;20;1803463;-44
2023/10/16 13:28:43;;;;;;;;;4.50;3.00;;;;;14.10;44.39;99978.75;6315399;20;2739268;-47
2023/10/16 13:31:11;;;;;;;;;4.00;4.00;;;;;14.55;44.30;99988.09;6286461;20;2749266;-44
2023/10/16 13:33:44;;;;;;;;;3.00;3.00;;;;;14.16;43.76;99989.97;6288536;20;2739862;-43
2023/10/16 13:36:14;;;;;;;;;5.60;2.00;;;;;14.49;43.99;99997.47;6309062;20;2756657;-43
2023/10/16 13:38:44;;;;;;;;;4.50;3.50;;;;;14.30;44.42;99993.50;6285827;20;2745245;-43
2023/10/16 13:41:18;;;;;;;;;2.00;2.00;;;;;14.15;44.15;99990.94;6285326;20;2735729;-42